createdAt,value
2022-10-28T00:00:17.719Z,99133.92
2022-10-28T00:04:01.679Z,99132.98
2022-10-28T00:07:37.158Z,99130.41
2022-10-28T00:11:20.486Z,99123.83
2022-10-28T00:14:52.639Z,99120.88
2022-10-28T00:18:51.889Z,99120.52
2022-10-28T00:22:12.878Z,99118.25
2022-10-28T00:26:15.321Z,99115.35
2022-10-28T00:29:36.093Z,99113.27
2022-10-28T00:33:33.055Z,99112.64
2022-10-28T00:36:54.140Z,99109.25
2022-10-28T00:40:35.896Z,99104.71
2022-10-28T00:44:47.824Z,99097.35
2022-10-28T00:48:09.442Z,99091.44
2022-10-28T00:51:50.806Z,99085.12
2022-10-28T00:55:25.762Z,99080.16
2022-10-28T00:59:06.722Z,99073.27
2022-10-28T01:02:50.174Z,99066.69
2022-10-28T01:06:17.699Z,99069.48
2022-10-28T01:09:55.238Z,99072.09
2022-10-28T01:13:57.828Z,99073.05
2022-10-28T01:17:37.065Z,99067.30
2022-10-28T01:21:14.033Z,99067.55
2022-10-28T01:24:45.140Z,99067.55
2022-10-28T01:28:36.231Z,99067.66
2022-10-28T01:32:30.351Z,99063.15
2022-10-28T01:35:57.648Z,99055.94
2022-10-28T01:39:42.133Z,99052.21
2022-10-28T01:43:16.253Z,99044.45
2022-10-28T01:46:59.457Z,99043.92
2022-10-28T01:50:38.291Z,99046.16
2022-10-28T01:54:23.226Z,99046.75
2022-10-28T01:57:46.736Z,99043.20
2022-10-28T02:01:23.923Z,99044.02
2022-10-28T02:05:37.696Z,99043.69
2022-10-28T02:09:26.839Z,99046.36
2022-10-28T02:12:55.313Z,99042.80
2022-10-28T02:16:35.318Z,99042.59
2022-10-28T02:20:32.276Z,99041.13
2022-10-28T02:24:10.252Z,99038.38
2022-10-28T02:28:07.178Z,99039.30
2022-10-28T02:31:52.288Z,99035.00
2022-10-28T02:35:19.193Z,99022.40
2022-10-28T02:38:57.019Z,99014.80
2022-10-28T02:42:34.772Z,99007.33
2022-10-28T02:46:09.573Z,99005.68
2022-10-28T02:50:09.397Z,99011.31
2022-10-28T02:53:36.894Z,99015.10
2022-10-28T02:57:32.067Z,99008.48
2022-10-28T03:00:52.626Z,99009.81
2022-10-28T03:04:30.219Z,99006.42
2022-10-28T03:08:26.656Z,99000.23
2022-10-28T03:11:47.190Z,99001.27
2022-10-28T03:15:24.879Z,98996.55
2022-10-28T03:19:02.981Z,98993.19
2022-10-28T03:22:43.847Z,98986.48
2022-10-28T03:26:17.868Z,98979.48
2022-10-28T03:29:55.651Z,98980.43
2022-10-28T03:33:33.403Z,98979.53
2022-10-28T03:37:11.079Z,98987.80
2022-10-28T03:41:07.643Z,98989.98
2022-10-28T03:44:28.329Z,98986.34
2022-10-28T03:48:24.742Z,98981.50
2022-10-28T03:51:45.555Z,98987.98
2022-10-28T03:55:23.981Z,98990.03
2022-10-28T03:59:20.451Z,98988.70
2022-10-28T04:02:59.727Z,98992.48
2022-10-28T04:06:20.340Z,98991.11
2022-10-28T04:09:58.121Z,98992.30
2022-10-28T04:13:35.714Z,98985.45
2022-10-28T04:17:13.750Z,98982.90
2022-10-28T04:20:51.226Z,98981.67
2022-10-28T04:24:28.941Z,98977.58
2022-10-28T04:28:25.552Z,98962.13
2022-10-28T04:31:48.721Z,98964.30
2022-10-28T04:35:43.975Z,98964.42
2022-10-28T04:39:04.913Z,98975.21
2022-10-28T04:42:42.576Z,98976.13
2022-10-28T04:46:20.239Z,98973.23
2022-10-28T04:50:16.893Z,98971.39
2022-10-28T04:53:38.203Z,98972.86
2022-10-28T04:57:34.386Z,98971.45
2022-10-28T05:00:55.355Z,98964.16
2022-10-28T05:04:32.783Z,98955.54
2022-10-28T05:08:10.704Z,98953.13
2022-10-28T05:11:48.070Z,98949.63
2022-10-28T05:15:26.657Z,98946.92
2022-10-28T05:19:22.256Z,98948.92
2022-10-28T05:22:53.768Z,98944.01
2022-10-28T05:26:20.636Z,98940.64
2022-10-28T05:29:58.550Z,98937.43
2022-10-28T05:33:36.167Z,98940.67
2022-10-28T05:37:13.923Z,98947.80
2022-10-28T05:40:51.404Z,98953.58
2022-10-28T05:44:48.006Z,98956.89
2022-10-28T05:48:08.753Z,98963.43
2022-10-28T05:52:05.305Z,98958.55
2022-10-28T05:55:28.436Z,98963.00
2022-10-28T05:59:04.402Z,98958.73
2022-10-28T06:02:42.137Z,98961.10
2022-10-28T06:06:19.035Z,98962.52
2022-10-28T06:10:16.131Z,98963.52
2022-10-28T06:13:36.147Z,98963.83
2022-10-28T06:17:13.702Z,98966.99
2022-10-28T06:21:10.212Z,98967.17
2022-10-28T06:24:30.846Z,98966.45
2022-10-28T06:28:10.388Z,98967.73
2022-10-28T06:32:08.611Z,98967.83
2022-10-28T06:35:29.139Z,98963.56
2022-10-28T06:39:07.111Z,98969.19
2022-10-28T06:43:05.403Z,98977.16
2022-10-28T06:46:46.147Z,98980.90
2022-10-28T06:50:07.041Z,98980.90
2022-10-28T06:54:03.150Z,98986.77
2022-10-28T06:57:42.848Z,98994.61
2022-10-28T07:01:07.258Z,98997.06
2022-10-28T07:04:44.674Z,98996.79
2022-10-28T07:08:22.390Z,98990.48
2022-10-28T07:12:04.760Z,98991.09
2022-10-28T07:15:37.806Z,98989.39
2022-10-28T07:19:34.169Z,98985.39
2022-10-28T07:22:59.915Z,98992.35
2022-10-28T07:26:32.169Z,98992.52
2022-10-28T07:30:10.905Z,98991.13
2022-10-28T07:34:06.462Z,98993.75
2022-10-28T07:37:45.829Z,98997.38
2022-10-28T07:41:09.070Z,98994.89
2022-10-28T07:45:04.174Z,99000.00
2022-10-28T07:48:25.213Z,98990.54
2022-10-28T07:52:02.757Z,98987.77
2022-10-28T07:56:02.242Z,98987.17
2022-10-28T07:59:26.797Z,98990.45
2022-10-28T08:03:02.798Z,98991.86
2022-10-28T08:06:38.419Z,98990.23
2022-10-28T08:10:16.268Z,98982.57
2022-10-28T08:13:55.325Z,98982.38
2022-10-28T08:17:51.937Z,98975.48
2022-10-28T08:21:14.036Z,98973.60
2022-10-28T08:24:50.525Z,98974.55
2022-10-28T08:28:28.867Z,98974.09
2022-10-28T08:32:09.479Z,98969.30
2022-10-28T08:35:43.708Z,98964.73
2022-10-28T08:39:21.416Z,98960.11
2022-10-28T08:43:08.592Z,98964.52
2022-10-28T08:47:23.801Z,98958.43
2022-10-28T08:51:13.714Z,98960.45
2022-10-28T08:54:47.495Z,98959.39
2022-10-28T08:58:28.593Z,98960.50
2022-10-28T09:02:24.458Z,98956.36
2022-10-28T09:06:06.834Z,98960.39
2022-10-28T09:09:27.540Z,98962.38
2022-10-28T09:13:18.435Z,98959.44
2022-10-28T09:16:48.774Z,98954.42
2022-10-28T09:20:31.855Z,98953.92
2022-10-28T09:24:04.055Z,98952.89
2022-10-28T09:27:58.480Z,98955.78
2022-10-28T09:52:07.018Z,98949.94
2022-10-28T09:55:29.107Z,98947.27
2022-10-28T09:59:24.188Z,98944.05
2022-10-28T10:02:45.604Z,98946.54
2022-10-28T10:06:32.253Z,98939.04
2022-10-28T10:10:06.052Z,98942.31
2022-10-28T10:13:41.510Z,98947.27
2022-10-28T10:17:20.219Z,98942.71
2022-10-28T10:20:58.502Z,98939.77
2022-10-28T10:24:50.321Z,98936.61
2022-10-28T10:28:16.046Z,98937.91
2022-10-28T10:32:03.255Z,98931.67
2022-10-28T10:35:35.397Z,98935.73
2022-10-28T10:39:04.111Z,98934.45
2022-10-28T10:43:18.564Z,98934.52
2022-10-28T10:46:41.138Z,98924.42
2022-10-28T10:54:18.573Z,98920.25
2022-10-28T10:57:41.367Z,98915.91
2022-10-28T11:01:39.502Z,98917.96
2022-10-28T11:05:04.792Z,98918.48
2022-10-28T11:08:41.400Z,98918.16
2022-10-28T11:12:36.700Z,98917.69
2022-10-28T11:16:17.682Z,98916.49
2022-10-28T11:19:39.841Z,98915.61
2022-10-28T11:24:05.557Z,98915.79
2022-10-28T11:28:05.336Z,98914.13
2022-10-28T11:31:33.389Z,98915.27
2022-10-28T11:35:29.688Z,98912.45
2022-10-28T11:39:10.729Z,98917.26
2022-10-28T11:42:45.460Z,98914.45
2022-10-28T11:46:19.154Z,98915.64
2022-10-28T11:50:34.532Z,98912.05
2022-10-28T11:54:42.527Z,98908.04
2022-10-28T11:58:59.605Z,98905.51
2022-10-28T12:03:01.630Z,98900.05
2022-10-28T12:06:28.929Z,98898.31
2022-10-28T12:10:20.110Z,98899.67
2022-10-28T12:14:10.177Z,98899.33
2022-10-28T12:17:45.893Z,98899.55
2022-10-28T12:21:18.829Z,98898.21
2022-10-28T12:24:47.178Z,98895.09
2022-10-28T12:28:47.985Z,98900.27
2022-10-28T12:32:12.824Z,98893.42
2022-10-28T12:36:19.275Z,98888.45
2022-10-28T12:40:22.384Z,98885.69
2022-10-28T12:43:49.695Z,98878.60
2022-10-28T12:47:24.635Z,98867.89
2022-10-28T12:51:28.429Z,98873.25
2022-10-28T13:02:39.872Z,98872.04
2022-10-28T13:06:16.393Z,98871.24
2022-10-28T13:10:40.625Z,98865.23
2022-10-28T13:14:34.211Z,98861.29
2022-10-28T13:18:06.439Z,98863.76
2022-10-28T13:21:50.833Z,98863.55
2022-10-28T13:25:24.668Z,98860.09
2022-10-28T13:28:53.823Z,98858.60
2022-10-28T13:32:37.364Z,98851.76
2022-10-28T13:36:17.051Z,98852.34
2022-10-28T13:39:44.867Z,98848.73
2022-10-28T13:43:41.796Z,98846.80
2022-10-28T13:47:23.797Z,98849.80
2022-10-28T13:51:10.341Z,98848.89
2022-10-28T13:54:49.454Z,98850.27
2022-10-28T13:58:22.976Z,98849.19
2022-10-28T14:01:56.726Z,98851.19
2022-10-28T14:05:38.914Z,98853.07
2022-10-28T14:09:18.377Z,98852.02
2022-10-28T14:12:50.166Z,98847.73
2022-10-28T14:16:38.627Z,98843.73
2022-10-28T14:20:01.460Z,98836.89
2022-10-28T14:24:07.247Z,98836.34
2022-10-28T14:27:44.170Z,98833.17
2022-10-28T14:31:40.477Z,98833.02
2022-10-28T14:35:17.928Z,98836.95
2022-10-28T14:39:20.430Z,98830.14
2022-10-28T14:42:58.413Z,98827.92
2022-10-28T14:46:46.861Z,98829.72
2022-10-28T14:50:22.687Z,98828.38
2022-10-28T14:53:47.140Z,98831.85
2022-10-28T14:57:43.974Z,98824.70
2022-10-28T15:01:16.113Z,98824.65
2022-10-28T15:04:47.129Z,98817.04
2022-10-28T15:08:41.101Z,98818.02
2022-10-28T15:12:25.455Z,98817.77
2022-10-28T15:16:05.599Z,98819.99
2022-10-28T15:19:29.150Z,98826.50
2022-10-28T15:23:23.244Z,98821.48
2022-10-28T15:27:02.786Z,98820.15
2022-10-28T15:30:25.683Z,98821.67
2022-10-28T15:34:20.417Z,98820.42
2022-10-28T15:37:40.990Z,98817.84
2022-10-28T15:41:21.674Z,98814.98
2022-10-28T15:44:57.011Z,98810.58
2022-10-28T15:48:33.969Z,98806.90
2022-10-28T15:52:17.892Z,98810.73
2022-10-28T15:56:18.025Z,98812.70
2022-10-28T15:59:38.747Z,98812.80
2022-10-28T16:03:45.702Z,98813.02
2022-10-28T16:07:10.167Z,98819.13
2022-10-28T16:10:48.143Z,98820.09
2022-10-28T16:14:31.619Z,98817.27
2022-10-28T16:17:59.869Z,98818.73
2022-10-28T16:21:38.128Z,98818.68
2022-10-28T16:25:33.500Z,98814.50
2022-10-28T16:28:54.231Z,98814.21
2022-10-28T16:32:36.633Z,98815.31
2022-10-28T16:36:09.647Z,98812.78
2022-10-28T16:39:47.083Z,98811.23
2022-10-28T16:43:25.862Z,98812.85
2022-10-28T16:47:25.912Z,98811.77
2022-10-28T16:51:17.051Z,98816.54
2022-10-28T16:54:37.999Z,98822.27
2022-10-28T16:58:34.746Z,98825.89
2022-10-28T17:01:58.973Z,98822.48
2022-10-28T17:05:52.074Z,98823.38
2022-10-28T17:09:12.656Z,98823.25
2022-10-28T17:13:14.085Z,98825.10
2022-10-28T17:16:36.005Z,98829.60
2022-10-28T17:20:12.401Z,98828.06
2022-10-28T17:23:50.596Z,98821.39
2022-10-28T17:27:27.768Z,98822.71
2022-10-28T17:31:08.226Z,98817.17
2022-10-28T17:35:02.053Z,98814.45
2022-10-28T17:38:22.817Z,98810.73
2022-10-28T17:42:03.943Z,98806.13
2022-10-28T17:45:38.200Z,98813.06
2022-10-28T17:49:35.759Z,98809.70
2022-10-28T17:52:56.972Z,98800.62
2022-10-28T17:56:34.908Z,98793.83
2022-10-28T18:00:13.958Z,98790.98
2022-10-28T18:03:50.484Z,98787.67
2022-10-28T18:07:45.836Z,98789.06
2022-10-28T18:11:26.690Z,98792.91
2022-10-28T18:14:47.434Z,98797.52
2022-10-28T18:18:43.905Z,98790.33
2022-10-28T18:22:05.131Z,98787.40
2022-10-28T18:25:42.677Z,98786.95
2022-10-28T18:29:20.634Z,98789.27
2022-10-28T18:32:58.159Z,98786.06
2022-10-28T18:36:36.087Z,98783.41
2022-10-28T18:40:14.073Z,98783.92
2022-10-28T18:43:56.271Z,98784.38
2022-10-28T18:47:28.906Z,98788.04
2022-10-28T18:51:09.889Z,98781.81
2022-10-28T18:55:04.272Z,98778.27
2022-10-28T18:58:28.665Z,98777.45
2022-10-28T19:02:21.978Z,98775.73
2022-10-28T19:06:05.371Z,98779.13
2022-10-28T19:09:26.106Z,98785.05
2022-10-28T19:13:04.015Z,98787.41
2022-10-28T19:16:41.511Z,98787.05
2022-10-28T19:20:19.444Z,98791.50
2022-10-28T19:23:57.361Z,98794.73
2022-10-28T19:27:34.713Z,98790.40
2022-10-28T19:31:18.568Z,98792.16
2022-10-28T19:34:50.987Z,98797.11
2022-10-28T19:38:31.027Z,98795.05
2022-10-28T19:42:25.159Z,98795.23
2022-10-28T19:46:06.791Z,98798.53
2022-10-28T19:49:32.436Z,98803.10
2022-10-28T19:53:05.649Z,98802.42
2022-10-28T19:57:01.955Z,98802.83
2022-10-28T20:00:22.375Z,98809.97
2022-10-28T20:04:00.149Z,98804.36
2022-10-28T20:07:57.006Z,98806.48
2022-10-28T20:11:38.789Z,98810.48
2022-10-28T20:14:59.967Z,98808.96
2022-10-28T20:18:38.362Z,98806.11
2022-10-28T20:22:16.786Z,98801.74
2022-10-28T20:25:53.139Z,98802.01
2022-10-28T20:29:30.302Z,98793.54
2022-10-28T20:33:08.315Z,98790.92
2022-10-28T20:36:45.804Z,98784.09
2022-10-28T20:40:23.496Z,98790.93
2022-10-28T20:44:02.616Z,98787.60
2022-10-28T20:47:39.316Z,98786.90
2022-10-28T20:51:16.719Z,98784.20
2022-10-28T20:54:54.141Z,98780.63
2022-10-28T20:58:34.011Z,98781.46
2022-10-28T21:02:09.830Z,98774.58
2022-10-28T21:06:06.296Z,98767.67
2022-10-28T21:09:27.253Z,98767.81
2022-10-28T21:13:05.140Z,98768.98
2022-10-28T21:17:01.142Z,98772.31
2022-10-28T21:20:22.512Z,98773.67
2022-10-28T21:23:59.791Z,98771.60
2022-10-28T21:27:56.991Z,98771.79
2022-10-28T21:31:20.792Z,98768.98
2022-10-28T21:34:55.460Z,98762.17
2022-10-28T21:38:54.939Z,98766.80
2022-10-28T21:42:37.240Z,98760.90
2022-10-28T21:45:58.871Z,98760.52
2022-10-28T21:49:35.775Z,98759.26
2022-10-28T21:53:13.564Z,98758.71
2022-10-28T21:56:51.108Z,98761.25
2022-10-28T22:00:28.727Z,98763.34
2022-10-28T22:04:06.385Z,98767.47
2022-10-28T22:07:44.292Z,98770.25
2022-10-28T22:11:23.348Z,98764.14
2022-10-28T22:14:59.490Z,98767.41
2022-10-28T22:18:58.346Z,98766.00
2022-10-28T22:22:19.129Z,98758.90
2022-10-28T22:26:01.068Z,98750.27
2022-10-28T22:29:34.428Z,98736.39
2022-10-28T22:33:12.277Z,98741.54
2022-10-28T22:36:49.798Z,98744.94
2022-10-28T22:40:46.287Z,98738.39
2022-10-28T22:44:07.674Z,98732.86
2022-10-28T22:47:44.217Z,98736.38
2022-10-28T22:51:40.873Z,98729.64
2022-10-28T22:55:20.191Z,98737.23
2022-10-28T22:58:42.659Z,98739.90
2022-10-28T23:02:18.608Z,98738.98
2022-10-28T23:05:56.169Z,98735.19
2022-10-28T23:09:52.559Z,98729.35
2022-10-28T23:13:13.792Z,98725.81
2022-10-28T23:16:50.670Z,98726.77
2022-10-28T23:20:28.523Z,98721.41
2022-10-28T23:24:24.880Z,98722.56
2022-10-28T23:28:05.094Z,98718.46
2022-10-28T23:31:26.600Z,98714.27
2022-10-28T23:35:04.801Z,98716.73
2022-10-28T23:38:41.465Z,98709.41
2022-10-28T23:42:23.994Z,98702.45
2022-10-28T23:45:57.264Z,98701.53
2022-10-28T23:49:34.383Z,98704.85
2022-10-28T23:53:11.828Z,98703.00
2022-10-28T23:56:49.724Z,98702.86
